Time;durP1;ratioP1;P1;durP2;ratioP2;P2;SDS_P1;SDS_P2;PMS_P1;PMS_P2;Temp;Humidity;BMP_temperature;BMP_pressure;BME280_temperature;BME280_humidity;BME280_pressure;Samples;Min_cycle;Max_cycle;Signal;HPM_P1;HPM_P2
2023/09/29 00:00:54;;;;;;;9.32;3.30;;;;;;;;;;5093482;28;20024;-70
2023/09/29 00:03:20;;;;;;;8.35;4.00;;;;;;;;;;5093441;28;20030;-69
2023/09/29 00:05:49;;;;;;;5.07;3.30;;;;;;;;;;5093691;28;20027;-69
2023/09/29 00:08:22;;;;;;;4.57;3.13;;;;;;;;;;5093449;28;20026;-69
2023/09/29 00:10:50;;;;;;;4.63;3.22;;;;;;;;;;5093489;28;20032;-70
2023/09/29 00:13:17;;;;;;;6.32;3.20;;;;;;;;;;5092898;28;20481;-69
2023/09/29 00:15:43;;;;;;;7.25;3.30;;;;;;;;;;5093205;28;20473;-70
2023/09/29 00:18:10;;;;;;;6.03;3.60;;;;;;;;;;5093177;28;20038;-69
2023/09/29 00:20:36;;;;;;;4.38;3.22;;;;;;;;;;5075430;28;20035;-69
2023/09/29 00:23:03;;;;;;;8.30;3.40;;;;;;;;;;5093379;28;20026;-69
2023/09/29 00:25:30;;;;;;;3.28;2.97;;;;;;;;;;5092804;28;20024;-69
2023/09/29 00:27:57;;;;;;;4.95;3.42;;;;;;;;;;5093269;28;20016;-69
2023/09/29 00:30:23;;;;;;;4.35;3.22;;;;;;;;;;5093099;28;20024;-69
2023/09/29 00:32:51;;;;;;;5.93;3.45;;;;;;;;;;5092950;28;20069;-69
2023/09/29 00:35:24;;;;;;;7.80;3.30;;;;;;;;;;5092638;28;20040;-69
2023/09/29 00:38:00;;;;;;;7.90;3.40;;;;;;;;;;5092957;28;20039;-70
2023/09/29 00:40:27;;;;;;;4.28;3.30;;;;;;;;;;5074596;28;20058;-70
2023/09/29 00:42:53;;;;;;;5.22;3.45;;;;;;;;;;5093133;28;20016;-69
2023/09/29 00:45:23;;;;;;;6.05;3.55;;;;;;;;;;5092833;28;20027;-69
2023/09/29 00:47:51;;;;;;;7.72;3.30;;;;;;;;;;5092825;28;20024;-69
2023/09/29 00:50:20;;;;;;;4.57;2.92;;;;;;;;;;5093042;28;20027;-69
2023/09/29 00:52:47;;;;;;;5.25;3.03;;;;;;;;;;5074439;28;20028;-69
2023/09/29 00:55:16;;;;;;;6.13;3.20;;;;;;;;;;5092321;28;20036;-69
2023/09/29 00:57:43;;;;;;;5.53;3.17;;;;;;;;;;5093108;28;20024;-69
2023/09/29 01:00:30;;;;;;;6.75;3.28;;;;;;;;;;5074538;28;20023;-69
2023/09/29 01:03:00;;;;;;;4.55;3.25;;;;;;;;;;5092615;28;20038;-69
2023/09/29 01:05:29;;;;;;;3.72;3.00;;;;;;;;;;5092749;28;20031;-69
2023/09/29 01:07:55;;;;;;;6.78;3.28;;;;;;;;;;5092634;28;20020;-69
2023/09/29 01:10:24;;;;;;;4.50;3.38;;;;;;;;;;5092526;28;20054;-69
2023/09/29 01:12:50;;;;;;;4.72;3.40;;;;;;;;;;5092566;28;20020;-69
2023/09/29 01:15:19;;;;;;;3.97;3.00;;;;;;;;;;5092267;28;20036;-69
2023/09/29 01:17:46;;;;;;;6.28;3.58;;;;;;;;;;5092734;28;20047;-69
2023/09/29 01:20:24;;;;;;;6.68;3.63;;;;;;;;;;5092627;28;20484;-69
2023/09/29 01:22:50;;;;;;;4.65;3.05;;;;;;;;;;5092658;28;20056;-69
2023/09/29 01:25:17;;;;;;;6.13;3.28;;;;;;;;;;5092133;28;20012;-69
2023/09/29 01:27:45;;;;;;;7.43;3.70;;;;;;;;;;5092303;28;20087;-69
2023/09/29 01:30:16;;;;;;;5.05;3.13;;;;;;;;;;5092336;28;20028;-69
2023/09/29 01:32:43;;;;;;;4.55;3.10;;;;;;;;;;5074611;28;20058;-69
2023/09/29 01:35:21;;;;;;;7.03;3.28;;;;;;;;;;5091182;28;20503;-69
2023/09/29 01:37:49;;;;;;;4.55;3.10;;;;;;;;;;5092411;28;20039;-69
2023/09/29 01:40:15;;;;;;;5.93;3.08;;;;;;;;;;5092164;28;20050;-69
2023/09/29 01:42:43;;;;;;;8.13;3.60;;;;;;;;;;5092464;28;20034;-69
2023/09/29 01:45:13;;;;;;;4.00;3.08;;;;;;;;;;5092589;28;20020;-69
2023/09/29 01:47:40;;;;;;;;;;;;;;;;;;5093285;28;20469;-69
2023/09/29 01:50:07;;;;;;;7.00;3.58;;;;;;;;;;5096343;28;19956;-69
2023/09/29 01:52:33;;;;;;;7.95;3.75;;;;;;;;;;5077586;28;20030;-69
2023/09/29 01:55:02;;;;;;;6.22;3.72;;;;;;;;;;5095755;28;20504;-69
2023/09/29 01:57:28;;;;;;;6.95;3.70;;;;;;;;;;5095888;28;20435;-69
2023/09/29 01:59:54;;;;;;;6.80;4.03;;;;;;;;;;5096260;28;20040;-69
2023/09/29 02:02:21;;;;;;;8.07;3.92;;;;;;;;;;5095694;28;20392;-69
2023/09/29 02:04:48;;;;;;;5.50;3.05;;;;;;;;;;5095800;28;20426;-69
2023/09/29 02:07:14;;;;;;;4.85;3.50;;;;;;;;;;5095395;28;20027;-69
2023/09/29 02:09:42;;;;;;;5.95;3.50;;;;;;;;;;5095686;28;20031;-69
2023/09/29 02:12:09;;;;;;;4.85;3.28;;;;;;;;;;5095699;28;20023;-69
2023/09/29 02:14:36;;;;;;;8.65;3.92;;;;;;;;;;5095444;28;20044;-69
2023/09/29 02:17:04;;;;;;;5.03;3.15;;;;;;;;;;5095878;28;20031;-69
2023/09/29 02:19:35;;;;;;;6.95;3.63;;;;;;;;;;5095523;28;20027;-69
2023/09/29 02:22:01;;;;;;;;;;;;;;;;;;5095597;28;20020;-69
2023/09/29 02:24:29;;;;;;;6.25;3.75;;;;;;;;;;5095755;28;19929;-69
2023/09/29 02:26:55;;;;;;;5.80;3.78;;;;;;;;;;5095285;28;20050;-69
2023/09/29 02:29:21;;;;;;;4.28;3.30;;;;;;;;;;5094012;28;20024;-69
2023/09/29 02:31:48;;;;;;;5.18;3.55;;;;;;;;;;5095389;28;20024;-69
2023/09/29 02:34:15;;;;;;;5.85;3.40;;;;;;;;;;5093834;28;20035;-69
2023/09/29 02:36:41;;;;;;;6.43;3.90;;;;;;;;;;5094836;28;20390;-69
2023/09/29 02:39:08;;;;;;;4.82;3.80;;;;;;;;;;5095130;28;20020;-69
2023/09/29 02:41:38;;;;;;;6.00;3.83;;;;;;;;;;5094915;28;20429;-69
2023/09/29 02:44:05;;;;;;;6.57;3.63;;;;;;;;;;5095113;28;20035;-69
2023/09/29 02:46:31;;;;;;;6.53;3.72;;;;;;;;;;5094899;28;20062;-69
2023/09/29 02:48:57;;;;;;;5.65;3.80;;;;;;;;;;5095104;28;20024;-69
2023/09/29 02:51:24;;;;;;;5.18;3.85;;;;;;;;;;5094498;28;20485;-69
2023/09/29 02:53:54;;;;;;;6.53;3.80;;;;;;;;;;5094564;28;20055;-69
2023/09/29 02:56:21;;;;;;;5.55;3.20;;;;;;;;;;5094974;28;20469;-69
2023/09/29 02:58:47;;;;;;;4.22;3.45;;;;;;;;;;5076334;28;20097;-69
2023/09/29 03:01:16;;;;;;;7.35;3.58;;;;;;;;;;5095041;28;20163;-69
2023/09/29 03:03:44;;;;;;;5.43;3.70;;;;;;;;;;5094720;28;20031;-69
2023/09/29 03:06:11;;;;;;;5.18;3.25;;;;;;;;;;5094695;28;20023;-69
2023/09/29 03:08:38;;;;;;;7.85;3.60;;;;;;;;;;5094883;28;20028;-69
2023/09/29 03:11:09;;;;;;;8.45;3.55;;;;;;;;;;5094621;28;20023;-69
2023/09/29 03:13:37;;;;;;;;;;;;;;;;;;5095266;28;20027;-69
2023/09/29 03:16:06;;;;;;;5.32;3.40;;;;;;;;;;5094594;28;19908;-69
2023/09/29 03:18:34;;;;;;;7.18;3.88;;;;;;;;;;5094599;28;20031;-69
2023/09/29 03:21:00;;;;;;;5.53;3.70;;;;;;;;;;5094096;28;20024;-69
2023/09/29 03:23:28;;;;;;;3.92;3.40;;;;;;;;;;5094179;28;20430;-69
2023/09/29 03:25:55;;;;;;;6.60;3.53;;;;;;;;;;5094305;28;20039;-69
2023/09/29 03:28:21;;;;;;;7.10;4.15;;;;;;;;;;5094040;28;20031;-69
2023/09/29 03:30:48;;;;;;;12.48;3.60;;;;;;;;;;5093131;28;20020;-69
2023/09/29 03:33:14;;;;;;;4.72;3.70;;;;;;;;;;5094177;28;20020;-69
2023/09/29 03:35:41;;;;;;;6.35;3.90;;;;;;;;;;5093738;28;20039;-69
2023/09/29 03:38:07;;;;;;;6.68;4.07;;;;;;;;;;5094220;28;20024;-69
2023/09/29 03:40:34;;;;;;;5.72;3.38;;;;;;;;;;5093960;28;20030;-69
2023/09/29 03:43:01;;;;;;;6.47;4.28;;;;;;;;;;5094117;28;20032;-69
2023/09/29 03:45:27;;;;;;;5.80;3.72;;;;;;;;;;5093864;28;20020;-69
2023/09/29 03:47:54;;;;;;;8.13;4.18;;;;;;;;;;5093719;28;20035;-69
2023/09/29 03:50:20;;;;;;;6.00;4.10;;;;;;;;;;5093718;28;20028;-69
2023/09/29 03:52:46;;;;;;;6.00;3.80;;;;;;;;;;5093425;28;20020;-69
2023/09/29 03:55:14;;;;;;;7.65;3.63;;;;;;;;;;5093466;28;20097;-69
2023/09/29 03:57:48;;;;;;;6.15;3.78;;;;;;;;;;5093642;28;20038;-69
2023/09/29 04:00:18;;;;;;;6.32;3.95;;;;;;;;;;5093543;28;20488;-69
2023/09/29 04:02:44;;;;;;;7.22;4.07;;;;;;;;;;5093446;28;20020;-69
2023/09/29 04:05:11;;;;;;;6.43;3.70;;;;;;;;;;5093162;28;20036;-69
2023/09/29 04:07:39;;;;;;;7.90;3.75;;;;;;;;;;5093483;28;20028;-69
2023/09/29 04:10:08;;;;;;;7.63;3.83;;;;;;;;;;5093031;28;20018;-69
2023/09/29 04:12:35;;;;;;;6.93;4.05;;;;;;;;;;5092912;28;20034;-69
2023/09/29 04:15:01;;;;;;;5.25;3.97;;;;;;;;;;5091944;28;20032;-69
2023/09/29 04:17:27;;;;;;;5.18;3.88;;;;;;;;;;5092832;28;20481;-69
2023/09/29 04:19:55;;;;;;;5.00;3.90;;;;;;;;;;5093274;28;20020;-69
2023/09/29 04:22:24;;;;;;;5.10;3.80;;;;;;;;;;5093343;28;20028;-69
2023/09/29 04:24:50;;;;;;;5.43;3.72;;;;;;;;;;5093222;28;20072;-69
2023/09/29 04:27:17;;;;;;;6.45;4.55;;;;;;;;;;5093149;28;20024;-69
2023/09/29 04:29:43;;;;;;;7.47;4.07;;;;;;;;;;5093091;28;20035;-69
2023/09/29 04:32:10;;;;;;;6.93;3.95;;;;;;;;;;5092671;28;20028;-69
2023/09/29 04:34:36;;;;;;;5.80;3.40;;;;;;;;;;5093070;28;20035;-69
2023/09/29 04:37:02;;;;;;;8.57;3.83;;;;;;;;;;5093004;28;20020;-69
2023/09/29 04:39:28;;;;;;;5.18;3.60;;;;;;;;;;5093130;28;20042;-69
2023/09/29 04:41:55;;;;;;;5.93;4.25;;;;;;;;;;5092751;28;20016;-69
2023/09/29 04:44:21;;;;;;;8.20;3.88;;;;;;;;;;5092935;28;20024;-69
2023/09/29 04:46:47;;;;;;;6.25;4.32;;;;;;;;;;5092498;28;20038;-69
2023/09/29 04:49:14;;;;;;;7.78;3.63;;;;;;;;;;5092837;28;20514;-69
2023/09/29 04:51:42;;;;;;;9.77;4.22;;;;;;;;;;5092979;28;20465;-70
2023/09/29 04:54:08;;;;;;;7.03;4.57;;;;;;;;;;5091074;28;20081;-69
2023/09/29 04:56:34;;;;;;;5.68;3.80;;;;;;;;;;5074767;28;20058;-69
2023/09/29 04:59:00;;;;;;;6.60;3.88;;;;;;;;;;5092677;28;20022;-69
2023/09/29 05:01:27;;;;;;;6.03;4.30;;;;;;;;;;5092338;28;20100;-69
2023/09/29 05:03:53;;;;;;;8.35;4.25;;;;;;;;;;5091460;28;20089;-69
2023/09/29 05:06:23;;;;;;;6.85;3.90;;;;;;;;;;5092489;28;20054;-69
2023/09/29 05:08:50;;;;;;;4.78;4.05;;;;;;;;;;5092641;28;20400;-69
2023/09/29 05:11:21;;;;;;;5.72;4.07;;;;;;;;;;5092562;28;20042;-69
2023/09/29 05:13:47;;;;;;;;;;;;;;;;;;5092814;28;20400;-69
2023/09/29 05:16:13;;;;;;;6.15;4.20;;;;;;;;;;5092346;28;19904;-69
2023/09/29 05:18:39;;;;;;;10.15;4.22;;;;;;;;;;5092415;28;20477;-69
2023/09/29 05:21:06;;;;;;;8.27;4.10;;;;;;;;;;5074496;28;20388;-69
2023/09/29 05:23:32;;;;;;;6.25;4.28;;;;;;;;;;5095876;28;20046;-69
2023/09/29 05:26:04;;;;;;;9.88;4.07;;;;;;;;;;5096527;28;20068;-69
2023/09/29 05:28:31;;;;;;;6.88;4.00;;;;;;;;;;5096409;28;20026;-69
2023/09/29 05:30:57;;;;;;;6.95;4.00;;;;;;;;;;5096051;28;20024;-69
2023/09/29 05:33:24;;;;;;;6.47;4.25;;;;;;;;;;5096291;28;20024;-68
2023/09/29 05:35:50;;;;;;;7.22;4.35;;;;;;;;;;5096648;28;20081;-69
2023/09/29 05:38:17;;;;;;;5.63;3.92;;;;;;;;;;5096283;28;20031;-69
2023/09/29 05:40:44;;;;;;;10.40;4.70;;;;;;;;;;5096465;28;20034;-69
2023/09/29 05:43:10;;;;;;;6.38;4.25;;;;;;;;;;5096081;28;20396;-69
2023/09/29 05:45:37;;;;;;;8.85;4.28;;;;;;;;;;5096027;28;20028;-69
2023/09/29 05:48:04;;;;;;;10.35;4.40;;;;;;;;;;5096125;28;20485;-69
2023/09/29 05:50:30;;;;;;;8.55;4.18;;;;;;;;;;5096319;28;20085;-69
2023/09/29 05:52:57;;;;;;;8.07;4.22;;;;;;;;;;5095823;28;20046;-69
2023/09/29 05:55:24;;;;;;;8.27;4.35;;;;;;;;;;5094645;28;20036;-69
2023/09/29 05:57:51;;;;;;;6.43;4.20;;;;;;;;;;5096165;28;20012;-69
2023/09/29 06:00:18;;;;;;;7.97;4.50;;;;;;;;;;5095733;28;20034;-69
2023/09/29 06:02:44;;;;;;;6.15;4.38;;;;;;;;;;5095727;28;20028;-69
2023/09/29 06:05:11;;;;;;;9.48;3.85;;;;;;;;;;5095772;28;20036;-69
2023/09/29 06:07:37;;;;;;;9.82;4.18;;;;;;;;;;5095651;28;20035;-69
2023/09/29 06:10:07;;;;;;;9.48;4.53;;;;;;;;;;5094439;28;20508;-69
2023/09/29 06:12:34;;;;;;;12.07;4.90;;;;;;;;;;5094369;28;20028;-69
2023/09/29 06:15:00;;;;;;;8.63;3.92;;;;;;;;;;5093773;28;20396;-69
2023/09/29 06:17:26;;;;;;;12.50;4.60;;;;;;;;;;5093619;28;20480;-68
2023/09/29 06:19:53;;;;;;;6.70;4.75;;;;;;;;;;5099323;28;20415;-68
2023/09/29 06:22:19;;;;;;;8.27;4.47;;;;;;;;;;5095704;28;20020;-68
2023/09/29 06:24:45;;;;;;;5.28;4.15;;;;;;;;;;5094388;28;20038;-68
2023/09/29 06:27:12;;;;;;;6.18;3.88;;;;;;;;;;5094035;28;20008;-69
2023/09/29 06:29:46;;;;;;;6.22;4.22;;;;;;;;;;5091206;28;20024;-68
2023/09/29 06:32:13;;;;;;;6.38;4.32;;;;;;;;;;5086868;28;20473;-69
2023/09/29 06:34:39;;;;;;;7.18;3.83;;;;;;;;;;5093691;28;20024;-69
2023/09/29 06:37:06;;;;;;;15.10;5.10;;;;;;;;;;5094213;28;20012;-70
2023/09/29 06:39:33;;;;;;;12.48;5.13;;;;;;;;;;5093785;28;20080;-69
2023/09/29 06:41:59;;;;;;;12.45;4.80;;;;;;;;;;5075919;28;20021;-69
2023/09/29 06:44:25;;;;;;;8.13;4.70;;;;;;;;;;5093166;28;20481;-70
2023/09/29 06:46:51;;;;;;;12.85;4.75;;;;;;;;;;5094281;28;20035;-69
2023/09/29 06:49:18;;;;;;;9.52;4.55;;;;;;;;;;5093625;28;20030;-69
2023/09/29 06:51:44;;;;;;;12.02;5.43;;;;;;;;;;5092740;28;20096;-69
2023/09/29 06:54:10;;;;;;;8.48;4.47;;;;;;;;;;5093258;28;20419;-69
2023/09/29 06:56:37;;;;;;;12.95;5.68;;;;;;;;;;5093517;28;20040;-69
2023/09/29 06:59:03;;;;;;;5.88;4.15;;;;;;;;;;5076816;28;20028;-69
2023/09/29 07:01:30;;;;;;;11.60;4.53;;;;;;;;;;5092830;28;20020;-69
2023/09/29 07:03:56;;;;;;;6.82;4.35;;;;;;;;;;5091943;28;20436;-69
2023/09/29 07:06:23;;;;;;;9.02;4.32;;;;;;;;;;5093050;28;20668;-69
2023/09/29 07:08:50;;;;;;;5.57;4.00;;;;;;;;;;5093315;28;20004;-69
2023/09/29 07:11:16;;;;;;;12.50;3.95;;;;;;;;;;5093182;28;20028;-70
2023/09/29 07:13:42;;;;;;;8.82;4.20;;;;;;;;;;5092304;28;20020;-69
2023/09/29 07:16:09;;;;;;;10.40;3.80;;;;;;;;;;5092127;28;20508;-69
2023/09/29 07:18:35;;;;;;;13.13;4.30;;;;;;;;;;5093705;28;20545;-70
2023/09/29 07:21:02;;;;;;;10.55;4.20;;;;;;;;;;5091742;28;20504;-69
2023/09/29 07:23:33;;;;;;;12.02;4.28;;;;;;;;;;5093064;28;20032;-69
2023/09/29 07:25:59;;;;;;;12.93;4.50;;;;;;;;;;5091561;28;20497;-69
2023/09/29 07:28:26;;;;;;;7.82;4.53;;;;;;;;;;5092923;28;20024;-69
2023/09/29 07:30:52;;;;;;;9.32;4.20;;;;;;;;;;5082772;28;20519;-69
2023/09/29 07:33:18;;;;;;;10.50;4.35;;;;;;;;;;5092136;28;20480;-69
2023/09/29 07:35:48;;;;;;;7.50;3.97;;;;;;;;;;5083978;28;20038;-71
2023/09/29 07:38:16;;;;;;;9.35;4.18;;;;;;;;;;5091249;28;20035;-69
2023/09/29 07:40:43;;;;;;;7.30;3.92;;;;;;;;;;5092228;28;20037;-69
2023/09/29 07:43:09;;;;;;;7.15;3.65;;;;;;;;;;5089505;28;20392;-69
2023/09/29 07:45:35;;;;;;;9.02;3.58;;;;;;;;;;5082371;28;20051;-69
2023/09/29 07:48:02;;;;;;;8.50;5.05;;;;;;;;;;5092327;28;20499;-69
2023/09/29 07:50:29;;;;;;;6.00;3.88;;;;;;;;;;5092281;28;20096;-69
2023/09/29 07:52:55;;;;;;;8.55;3.92;;;;;;;;;;5091898;28;20027;-70
2023/09/29 07:55:22;;;;;;;9.27;3.50;;;;;;;;;;5056108;28;20545;-70
2023/09/29 07:57:48;;;;;;;8.68;4.10;;;;;;;;;;5091905;28;20020;-70
2023/09/29 08:00:16;;;;;;;6.53;3.90;;;;;;;;;;5091684;28;20492;-70
2023/09/29 08:02:43;;;;;;;11.88;3.90;;;;;;;;;;5091928;28;20024;-70
2023/09/29 08:05:12;;;;;;;5.35;3.58;;;;;;;;;;5091984;28;20393;-69
2023/09/29 08:07:41;;;;;;;5.78;3.60;;;;;;;;;;5088256;28;20054;-69
2023/09/29 08:10:10;;;;;;;3.80;3.10;;;;;;;;;;5090191;28;20477;-70
2023/09/29 08:12:37;;;;;;;9.68;3.58;;;;;;;;;;5091725;28;20016;-69
2023/09/29 08:15:05;;;;;;;8.35;3.75;;;;;;;;;;5091054;28;20438;-68
2023/09/29 08:17:31;;;;;;;4.75;3.30;;;;;;;;;;5091306;28;20085;-70
2023/09/29 08:19:58;;;;;;;7.90;3.70;;;;;;;;;;5091509;28;20020;-69
2023/09/29 08:22:24;;;;;;;5.30;3.30;;;;;;;;;;5091520;28;20470;-70
2023/09/29 08:24:50;;;;;;;5.25;3.38;;;;;;;;;;5090694;28;20493;-68
2023/09/29 08:27:17;;;;;;;7.93;3.22;;;;;;;;;;5091374;28;20031;-69
2023/09/29 08:29:43;;;;;;;9.23;3.65;;;;;;;;;;5095770;28;20020;-70
2023/09/29 08:32:09;;;;;;;6.53;2.97;;;;;;;;;;5091506;28;20370;-70
2023/09/29 08:34:36;;;;;;;19.30;4.55;;;;;;;;;;5091507;28;20026;-70
2023/09/29 08:37:03;;;;;;;27.27;4.38;;;;;;;;;;5091248;28;20485;-70
2023/09/29 08:39:29;;;;;;;23.90;3.83;;;;;;;;;;5090826;28;20024;-70
2023/09/29 08:42:05;;;;;;;9.80;3.72;;;;;;;;;;5089767;28;20020;-70
2023/09/29 08:44:33;;;;;;;10.25;3.58;;;;;;;;;;5091216;28;20020;-70
2023/09/29 08:47:01;;;;;;;4.63;3.05;;;;;;;;;;5091068;28;20024;-71
2023/09/29 08:49:27;;;;;;;7.72;3.58;;;;;;;;;;5090930;28;20020;-68
2023/09/29 08:51:55;;;;;;;7.13;3.33;;;;;;;;;;5073190;28;20384;-71
2023/09/29 08:54:21;;;;;;;9.27;3.22;;;;;;;;;;5072279;28;20055;-70
2023/09/29 08:56:48;;;;;;;8.00;3.60;;;;;;;;;;5072245;28;20016;-69
2023/09/29 08:59:15;;;;;;;5.22;3.53;;;;;;;;;;5090458;28;20028;-66
2023/09/29 09:01:42;;;;;;;9.52;3.70;;;;;;;;;;5090337;28;20496;-70
2023/09/29 09:04:08;;;;;;;5.45;3.63;;;;;;;;;;5090555;28;20028;-70
2023/09/29 09:06:35;;;;;;;8.65;3.47;;;;;;;;;;5090545;28;20024;-70
2023/09/29 09:09:02;;;;;;;6.28;3.17;;;;;;;;;;5089511;28;20024;-70
2023/09/29 09:11:28;;;;;;;7.82;3.30;;;;;;;;;;5090291;28;20361;-70
2023/09/29 09:13:58;;;;;;;9.95;3.80;;;;;;;;;;5090631;28;20410;-70
2023/09/29 09:16:28;;;;;;;6.85;3.25;;;;;;;;;;5090259;28;20042;-69
2023/09/29 09:18:55;;;;;;;5.15;3.20;;;;;;;;;;5081474;28;20042;-69
2023/09/29 09:21:34;;;;;;;5.40;3.50;;;;;;;;;;5090192;28;20040;-69
2023/09/29 09:24:00;;;;;;;5.35;2.80;;;;;;;;;;5089109;28;20039;-70
2023/09/29 09:26:30;;;;;;;9.18;3.40;;;;;;;;;;5089949;28;20035;-69
2023/09/29 09:29:07;;;;;;;6.88;3.40;;;;;;;;;;5089886;28;20499;-69
2023/09/29 09:31:44;;;;;;;12.68;3.22;;;;;;;;;;5087392;28;20028;-70
2023/09/29 09:34:10;;;;;;;5.53;3.25;;;;;;;;;;5090799;28;20081;-70
2023/09/29 09:36:55;;;;;;;14.40;3.53;;;;;;;;;;5089693;28;20469;-70
2023/09/29 09:39:22;;;;;;;11.68;3.40;;;;;;;;;;5090497;28;20030;-70
2023/09/29 09:41:51;;;;;;;5.65;3.38;;;;;;;;;;5090830;28;20040;-70
2023/09/29 09:44:19;;;;;;;11.32;3.83;;;;;;;;;;5072515;28;20036;-70
2023/09/29 09:46:52;;;;;;;6.53;3.40;;;;;;;;;;5073967;28;20036;-70
2023/09/29 09:49:22;;;;;;;7.93;3.65;;;;;;;;;;5079224;28;20026;-71
2023/09/29 09:51:49;;;;;;;12.80;3.20;;;;;;;;;;5089382;28;20020;-70
2023/09/29 09:54:19;;;;;;;6.68;3.10;;;;;;;;;;5089922;28;20052;-70
2023/09/29 09:56:50;;;;;;;6.85;3.40;;;;;;;;;;5090577;28;20032;-70
2023/09/29 09:59:17;;;;;;;12.05;3.55;;;;;;;;;;5089997;28;20067;-71
2023/09/29 10:01:45;;;;;;;6.22;3.25;;;;;;;;;;5090425;28;20032;-70
2023/09/29 10:04:12;;;;;;;15.18;3.20;;;;;;;;;;5090102;28;20380;-70
2023/09/29 10:06:43;;;;;;;9.32;3.17;;;;;;;;;;5077312;28;20077;-69
2023/09/29 10:09:11;;;;;;;5.28;2.90;;;;;;;;;;5071303;28;20035;-70
2023/09/29 10:11:42;;;;;;;8.27;3.08;;;;;;;;;;5056026;28;20023;-70
2023/09/29 10:14:09;;;;;;;10.45;3.17;;;;;;;;;;5072391;28;20489;-70
2023/09/29 10:16:36;;;;;;;12.43;3.22;;;;;;;;;;5091050;28;20028;-71
2023/09/29 10:19:11;;;;;;;5.97;2.55;;;;;;;;;;5076043;28;20389;-71
2023/09/29 10:21:49;;;;;;;7.72;2.78;;;;;;;;;;5075537;28;20028;-70
2023/09/29 10:24:28;;;;;;;4.53;2.40;;;;;;;;;;5094144;28;20030;-71
2023/09/29 10:26:59;;;;;;;10.23;2.85;;;;;;;;;;5093666;28;20533;-70
2023/09/29 10:29:26;;;;;;;5.10;2.17;;;;;;;;;;5093853;28;20031;-71
2023/09/29 10:31:53;;;;;;;7.05;2.30;;;;;;;;;;5094227;28;20020;-70
2023/09/29 10:34:24;;;;;;;4.32;2.00;;;;;;;;;;5094108;28;20119;-71
2023/09/29 10:36:54;;;;;;;4.35;2.00;;;;;;;;;;5100773;28;20496;-70
2023/09/29 10:39:26;;;;;;;6.65;2.33;;;;;;;;;;5096171;28;20023;-70
2023/09/29 10:41:58;;;;;;;4.55;2.20;;;;;;;;;;5114663;28;20023;-70
2023/09/29 10:44:28;;;;;;;4.13;1.90;;;;;;;;;;5079013;28;20034;-71
2023/09/29 10:46:54;;;;;;;;;;;;;;;;;;5114309;28;20043;-70
2023/09/29 10:49:21;;;;;;;6.72;2.13;;;;;;;;;;5113571;28;20368;-70
2023/09/29 10:51:47;;;;;;;5.72;2.10;;;;;;;;;;5095977;28;20024;-71
2023/09/29 10:54:13;;;;;;;3.20;1.90;;;;;;;;;;5113825;28;20504;-70
2023/09/29 10:56:40;;;;;;;3.33;1.42;;;;;;;;;;5114125;28;20032;-70
2023/09/29 10:59:07;;;;;;;2.85;1.63;;;;;;;;;;5114312;28;20018;-70
2023/09/29 11:01:34;;;;;;;3.40;1.75;;;;;;;;;;5113701;28;20039;-70
2023/09/29 11:04:01;;;;;;;2.38;1.73;;;;;;;;;;5114060;28;20016;-71
2023/09/29 11:06:28;;;;;;;3.83;1.48;;;;;;;;;;5113839;28;20407;-70
2023/09/29 11:08:55;;;;;;;9.07;2.03;;;;;;;;;;5112422;28;20323;-70
2023/09/29 11:11:22;;;;;;;5.05;1.55;;;;;;;;;;5113713;28;20027;-70
2023/09/29 11:13:57;;;;;;;4.38;1.40;;;;;;;;;;5095488;28;20481;-70
2023/09/29 11:16:28;;;;;;;6.53;1.40;;;;;;;;;;5097437;28;20032;-70
2023/09/29 11:18:56;;;;;;;5.68;1.52;;;;;;;;;;5092955;28;20030;-70
2023/09/29 11:21:35;;;;;;;10.32;1.40;;;;;;;;;;5093133;28;20085;-70
2023/09/29 11:24:06;;;;;;;2.60;0.60;;;;;;;;;;5093429;28;20021;-70
2023/09/29 11:26:32;;;;;;;5.30;1.10;;;;;;;;;;5093630;28;20085;-71
2023/09/29 11:28:58;;;;;;;1.27;0.73;;;;;;;;;;5093250;28;20384;-70
2023/09/29 11:31:25;;;;;;;3.65;0.88;;;;;;;;;;5089239;28;20030;-71
2023/09/29 11:33:52;;;;;;;3.40;1.05;;;;;;;;;;5093736;28;20024;-71
2023/09/29 11:36:18;;;;;;;2.45;0.90;;;;;;;;;;5093242;28;20050;-70
2023/09/29 11:38:45;;;;;;;1.30;0.90;;;;;;;;;;5102899;28;20024;-69
2023/09/29 11:41:12;;;;;;;5.68;1.13;;;;;;;;;;5090780;28;20031;-71
2023/09/29 11:43:39;;;;;;;1.85;0.90;;;;;;;;;;5092834;28;20115;-70
2023/09/29 11:46:06;;;;;;;1.17;0.80;;;;;;;;;;5092636;28;20058;-71
2023/09/29 11:48:32;;;;;;;1.98;0.80;;;;;;;;;;5092707;28;20016;-71
2023/09/29 11:50:59;;;;;;;2.58;1.00;;;;;;;;;;5092949;28;20035;-71
2023/09/29 11:53:25;;;;;;;1.33;0.80;;;;;;;;;;5092638;28;20523;-70
2023/09/29 11:55:52;;;;;;;1.00;1.00;;;;;;;;;;5091716;28;20408;-71
2023/09/29 11:58:18;;;;;;;2.35;1.10;;;;;;;;;;5090164;28;20027;-71
2023/09/29 12:00:45;;;;;;;1.85;1.00;;;;;;;;;;5074221;28;20038;-71
2023/09/29 12:03:12;;;;;;;5.30;1.02;;;;;;;;;;5092147;28;20016;-71
2023/09/29 12:05:44;;;;;;;2.80;1.10;;;;;;;;;;5092157;28;20061;-71
2023/09/29 12:08:11;;;;;;;3.03;1.10;;;;;;;;;;5092197;28;20484;-70
2023/09/29 12:10:37;;;;;;;3.17;1.20;;;;;;;;;;5092379;28;20384;-71
2023/09/29 12:13:04;;;;;;;1.23;1.13;;;;;;;;;;5092335;28;20036;-71
2023/09/29 12:15:32;;;;;;;2.05;1.30;;;;;;;;;;5092197;28;20080;-71
2023/09/29 12:18:00;;;;;;;0.88;0.88;;;;;;;;;;5091705;28;20027;-71
2023/09/29 12:20:27;;;;;;;2.88;1.20;;;;;;;;;;5092214;28;20028;-70
2023/09/29 12:22:55;;;;;;;1.58;1.05;;;;;;;;;;5092001;28;20488;-71
2023/09/29 12:25:21;;;;;;;1.23;1.00;;;;;;;;;;5077009;28;20104;-70
2023/09/29 12:27:51;;;;;;;1.02;0.88;;;;;;;;;;5091981;28;20028;-71
2023/09/29 12:30:18;;;;;;;2.55;1.20;;;;;;;;;;5091604;28;20028;-71
2023/09/29 12:32:45;;;;;;;1.27;1.05;;;;;;;;;;5090566;28;20476;-71
2023/09/29 12:35:12;;;;;;;2.05;1.20;;;;;;;;;;5090953;28;20046;-71
2023/09/29 12:37:39;;;;;;;3.83;1.27;;;;;;;;;;5091719;28;20040;-71
2023/09/29 12:40:09;;;;;;;1.27;1.17;;;;;;;;;;5090921;28;20030;-71
2023/09/29 12:42:36;;;;;;;1.40;1.30;;;;;;;;;;5091294;28;20028;-71
2023/09/29 12:45:03;;;;;;;1.27;1.17;;;;;;;;;;5090095;28;20031;-70
2023/09/29 12:47:29;;;;;;;4.50;1.30;;;;;;;;;;5091582;28;20026;-69
2023/09/29 12:49:56;;;;;;;1.75;1.20;;;;;;;;;;5091463;28;20084;-69
2023/09/29 12:52:22;;;;;;;3.72;1.20;;;;;;;;;;5091850;28;20024;-69
2023/09/29 12:54:50;;;;;;;1.40;1.30;;;;;;;;;;5084474;28;20040;-68
2023/09/29 12:57:20;;;;;;;2.22;1.10;;;;;;;;;;5091636;28;20028;-73
2023/09/29 12:59:47;;;;;;;1.45;1.25;;;;;;;;;;5078213;28;20030;-71
2023/09/29 13:02:13;;;;;;;1.25;1.10;;;;;;;;;;5091732;28;20023;-71
2023/09/29 13:04:41;;;;;;;1.40;1.20;;;;;;;;;;5076469;28;20083;-68
2023/09/29 13:07:11;;;;;;;1.85;1.10;;;;;;;;;;5091718;28;20024;-69
2023/09/29 13:09:37;;;;;;;1.75;1.20;;;;;;;;;;5090709;28;20504;-71
2023/09/29 13:12:07;;;;;;;1.25;1.15;;;;;;;;;;5091098;28;20023;-71
2023/09/29 13:14:34;;;;;;;1.17;1.10;;;;;;;;;;5073085;28;20042;-72
2023/09/29 13:17:00;;;;;;;1.63;1.00;;;;;;;;;;5091534;28;20028;-71
2023/09/29 13:19:27;;;;;;;4.78;1.30;;;;;;;;;;5090519;28;20108;-72
2023/09/29 13:21:53;;;;;;;1.17;1.08;;;;;;;;;;5090708;28;20477;-71
2023/09/29 13:24:20;;;;;;;3.95;0.90;;;;;;;;;;5091313;28;20024;-71
2023/09/29 13:26:47;;;;;;;2.35;1.10;;;;;;;;;;5089942;28;20402;-71
2023/09/29 13:29:15;;;;;;;4.45;1.00;;;;;;;;;;5091574;28;20020;-71
2023/09/29 13:31:41;;;;;;;2.55;1.02;;;;;;;;;;5091405;28;20038;-71
2023/09/29 13:34:07;;;;;;;1.10;1.05;;;;;;;;;;5075854;28;20017;-72
2023/09/29 13:36:35;;;;;;;1.23;1.00;;;;;;;;;;5072849;28;20028;-71
2023/09/29 13:39:03;;;;;;;2.38;1.05;;;;;;;;;;5090716;28;20024;-71
2023/09/29 13:41:30;;;;;;;4.40;1.23;;;;;;;;;;5091280;28;20032;-71
2023/09/29 13:43:57;;;;;;;3.15;1.20;;;;;;;;;;5091336;28;20020;-72
2023/09/29 13:46:23;;;;;;;2.08;1.10;;;;;;;;;;5095647;28;20073;-71
2023/09/29 13:48:50;;;;;;;1.08;0.98;;;;;;;;;;5093907;28;20012;-71
2023/09/29 13:51:16;;;;;;;1.23;1.10;;;;;;;;;;5094619;28;20030;-72
2023/09/29 13:53:42;;;;;;;5.20;1.20;;;;;;;;;;5095200;28;20058;-71
2023/09/29 13:56:09;;;;;;;1.30;1.20;;;;;;;;;;5095065;28;20036;-72
2023/09/29 13:58:36;;;;;;;3.97;1.10;;;;;;;;;;5093560;28;20020;-71
2023/09/29 14:01:03;;;;;;;2.33;1.10;;;;;;;;;;5094630;28;20039;-71
2023/09/29 14:03:29;;;;;;;1.10;1.00;;;;;;;;;;5094559;28;20024;-71
2023/09/29 14:05:56;;;;;;;2.05;1.27;;;;;;;;;;5094828;28;20377;-71
2023/09/29 14:08:22;;;;;;;2.38;1.00;;;;;;;;;;5094670;28;20024;-71
2023/09/29 14:10:50;;;;;;;1.83;0.90;;;;;;;;;;5094383;28;20034;-72
2023/09/29 14:13:17;;;;;;;11.45;1.30;;;;;;;;;;5093747;28;20024;-70
2023/09/29 14:15:43;;;;;;;4.43;1.00;;;;;;;;;;5093550;28;20034;-71
2023/09/29 14:18:09;;;;;;;2.22;0.93;;;;;;;;;;5094995;28;20032;-72
2023/09/29 14:20:36;;;;;;;2.70;1.20;;;;;;;;;;5094403;28;20395;-72
2023/09/29 14:23:04;;;;;;;2.63;1.17;;;;;;;;;;5083671;28;20027;-71
2023/09/29 14:25:30;;;;;;;1.33;0.90;;;;;;;;;;5094044;28;20062;-71
2023/09/29 14:27:56;;;;;;;2.25;0.80;;;;;;;;;;5067913;28;20016;-70
2023/09/29 14:30:23;;;;;;;3.03;1.10;;;;;;;;;;5094234;28;20028;-70
2023/09/29 14:32:49;;;;;;;5.97;1.05;;;;;;;;;;5094238;28;20020;-71
2023/09/29 14:35:15;;;;;;;4.63;1.15;;;;;;;;;;5094155;28;20036;-71
2023/09/29 14:37:42;;;;;;;2.08;1.17;;;;;;;;;;5094116;28;20030;-71
2023/09/29 14:40:12;;;;;;;2.88;1.10;;;;;;;;;;5079218;28;20024;-71
2023/09/29 14:42:38;;;;;;;;;;;;;;;;;;5102360;28;20426;-70
2023/09/29 14:45:05;;;;;;;3.58;1.20;;;;;;;;;;5092475;28;20699;-71